createdAt,value
2023-02-16T00:00:52.302Z,13.40
2023-02-16T00:03:22.272Z,12.50
2023-02-16T00:05:50.320Z,13.10
2023-02-16T00:08:17.752Z,13.10
2023-02-16T00:11:05.425Z,13.20
2023-02-16T00:13:45.204Z,12.40
2023-02-16T00:16:16.415Z,12.60
2023-02-16T00:18:44.140Z,12.20
2023-02-16T00:21:11.844Z,12.40
2023-02-16T00:23:43.458Z,11.80
2023-02-16T00:26:17.836Z,12.30
2023-02-16T00:28:45.876Z,11.70
2023-02-16T00:31:18.886Z,11.50
2023-02-16T00:33:48.855Z,11.20
2023-02-16T00:36:20.334Z,11.40
2023-02-16T00:38:48.023Z,11.20
2023-02-16T00:41:39.015Z,11.70
2023-02-16T00:44:14.561Z,10.90
2023-02-16T00:46:42.290Z,10.70
2023-02-16T00:49:21.472Z,11.20
2023-02-16T00:51:50.516Z,11.00
2023-02-16T00:54:18.893Z,11.20
2023-02-16T00:56:46.829Z,11.80
2023-02-16T00:59:18.871Z,10.90
2023-02-16T01:01:46.901Z,10.80
2023-02-16T01:04:23.487Z,10.60
2023-02-16T01:07:09.859Z,9.80
2023-02-16T01:09:55.223Z,9.70
2023-02-16T01:12:23.004Z,10.00
2023-02-16T01:14:55.369Z,10.20
2023-02-16T01:17:25.556Z,10.40
2023-02-16T01:19:55.596Z,10.40
2023-02-16T01:22:23.423Z,10.80
2023-02-16T01:24:50.683Z,9.70
2023-02-16T01:27:18.334Z,9.80
2023-02-16T01:29:45.723Z,9.00
2023-02-16T01:32:13.144Z,10.20
2023-02-16T01:34:40.288Z,9.50
2023-02-16T01:37:15.176Z,9.40
2023-02-16T01:39:43.827Z,9.80
2023-02-16T01:42:17.069Z,9.60
2023-02-16T01:44:52.272Z,9.80
2023-02-16T01:47:40.094Z,9.00
2023-02-16T01:50:26.657Z,9.20
2023-02-16T01:53:00.436Z,9.10
2023-02-16T01:55:39.624Z,9.30
2023-02-16T01:58:25.573Z,9.40
2023-02-16T02:00:55.024Z,8.90
2023-02-16T02:03:48.847Z,8.50
2023-02-16T02:06:21.997Z,8.60
2023-02-16T02:08:57.528Z,8.70
2023-02-16T02:11:31.027Z,8.50
2023-02-16T02:14:06.199Z,8.60
2023-02-16T02:16:33.858Z,8.50
2023-02-16T02:19:01.401Z,8.60
2023-02-16T02:22:07.261Z,8.10
2023-02-16T02:25:12.332Z,7.90
2023-02-16T02:27:45.089Z,7.50
2023-02-16T02:30:52.456Z,8.50
2023-02-16T02:33:28.997Z,8.00
2023-02-16T02:36:09.089Z,8.10
2023-02-16T02:39:03.615Z,7.80
2023-02-16T02:41:54.068Z,7.50
2023-02-16T02:44:27.226Z,8.10
2023-02-16T02:46:55.769Z,8.00
2023-02-16T02:49:23.561Z,8.00
2023-02-16T02:51:52.697Z,8.40
2023-02-16T02:54:42.881Z,7.80
2023-02-16T02:57:37.950Z,7.60
2023-02-16T03:00:44.268Z,7.20
2023-02-16T03:03:35.675Z,8.00
2023-02-16T03:06:05.610Z,7.70
2023-02-16T03:08:36.023Z,7.50
2023-02-16T03:11:29.883Z,7.80
2023-02-16T03:14:05.792Z,7.50
2023-02-16T03:16:40.283Z,7.30
2023-02-16T03:19:29.149Z,7.70
2023-02-16T03:22:17.029Z,8.10
2023-02-16T03:25:03.933Z,7.80
2023-02-16T03:27:58.629Z,7.20
2023-02-16T03:30:27.931Z,7.00
2023-02-16T03:32:55.680Z,7.30
2023-02-16T03:35:23.258Z,6.90
2023-02-16T03:37:50.609Z,7.00
2023-02-16T03:40:30.973Z,7.20
2023-02-16T03:43:02.057Z,7.10
2023-02-16T03:45:30.505Z,6.80
2023-02-16T03:47:58.110Z,7.00
2023-02-16T03:50:27.650Z,7.20
2023-02-16T03:53:08.629Z,7.30
2023-02-16T03:55:41.814Z,7.20
2023-02-16T03:58:11.097Z,6.90
2023-02-16T04:00:39.076Z,6.60
2023-02-16T04:03:09.323Z,6.50
2023-02-16T04:05:37.358Z,6.30
2023-02-16T04:08:05.591Z,7.10
2023-02-16T04:10:33.193Z,5.60
2023-02-16T04:13:00.614Z,4.50
2023-02-16T04:15:30.157Z,5.40
2023-02-16T04:17:59.532Z,5.60
2023-02-16T04:20:30.057Z,5.20
2023-02-16T04:22:58.451Z,5.50
2023-02-16T04:25:26.565Z,5.20
2023-02-16T04:27:54.710Z,5.50
2023-02-16T04:30:30.224Z,5.60
2023-02-16T04:32:59.725Z,5.70
2023-02-16T04:35:27.477Z,5.50
2023-02-16T04:37:54.939Z,5.90
2023-02-16T04:40:22.325Z,5.50
2023-02-16T04:42:49.408Z,5.90
2023-02-16T04:45:16.798Z,6.40
2023-02-16T04:47:44.315Z,5.80
2023-02-16T04:50:13.383Z,6.20
2023-02-16T04:52:41.751Z,5.60
2023-02-16T04:55:11.220Z,5.50
2023-02-16T04:57:40.433Z,6.50
2023-02-16T05:00:09.605Z,5.60
2023-02-16T05:02:37.164Z,6.00
2023-02-16T05:05:04.852Z,5.70
2023-02-16T05:07:32.078Z,5.60
2023-02-16T05:09:59.383Z,6.20
2023-02-16T05:12:45.207Z,6.10
2023-02-16T05:15:12.560Z,6.10
2023-02-16T05:17:39.961Z,5.30
2023-02-16T05:20:07.408Z,5.60
2023-02-16T05:22:35.707Z,5.90
2023-02-16T05:25:02.989Z,6.00
2023-02-16T05:27:31.485Z,6.20
2023-02-16T05:29:59.641Z,5.80
2023-02-16T05:32:29.188Z,6.00
2023-02-16T05:34:56.300Z,5.90
2023-02-16T05:37:23.633Z,6.20
2023-02-16T05:39:50.727Z,5.50
2023-02-16T05:42:17.938Z,5.70
2023-02-16T05:44:44.932Z,5.70
2023-02-16T05:47:12.733Z,5.60
2023-02-16T05:49:39.712Z,5.70
2023-02-16T05:52:06.680Z,6.40
2023-02-16T05:54:33.662Z,5.80
2023-02-16T05:57:00.674Z,5.70
2023-02-16T05:59:27.840Z,5.60
2023-02-16T06:01:54.978Z,5.50
2023-02-16T06:04:23.358Z,5.60
2023-02-16T06:06:50.709Z,5.60
2023-02-16T06:09:17.997Z,5.60
2023-02-16T06:11:48.353Z,5.60
2023-02-16T06:14:22.541Z,5.30
2023-02-16T06:16:59.599Z,5.40
2023-02-16T06:19:29.413Z,5.70
2023-02-16T06:21:57.994Z,5.40
2023-02-16T06:24:25.458Z,5.40
2023-02-16T06:26:52.796Z,5.50
2023-02-16T06:29:20.410Z,5.50
2023-02-16T06:31:48.443Z,5.60
2023-02-16T06:34:15.903Z,5.80
2023-02-16T06:36:43.216Z,5.50
2023-02-16T06:39:10.360Z,5.70
2023-02-16T06:41:41.030Z,5.20
2023-02-16T06:44:12.653Z,5.70
2023-02-16T06:46:40.822Z,3.70
2023-02-16T06:49:08.009Z,3.20
2023-02-16T06:51:35.019Z,3.50
2023-02-16T06:54:02.202Z,3.90
2023-02-16T06:56:29.233Z,3.70
2023-02-16T06:58:56.193Z,4.60
2023-02-16T07:01:26.010Z,4.20
2023-02-16T07:03:55.112Z,4.30
2023-02-16T07:06:24.451Z,4.00
2023-02-16T07:08:51.645Z,3.80
2023-02-16T07:11:19.464Z,4.50
2023-02-16T07:13:47.270Z,4.60
2023-02-16T07:16:14.701Z,4.40
2023-02-16T07:18:41.686Z,4.50
2023-02-16T07:21:08.697Z,4.80
2023-02-16T07:23:35.603Z,4.30
2023-02-16T07:26:02.732Z,4.60
2023-02-16T07:28:29.748Z,4.60
2023-02-16T07:30:56.753Z,4.40
2023-02-16T07:33:24.463Z,4.40
2023-02-16T07:35:51.717Z,4.60
2023-02-16T07:38:18.917Z,5.40
2023-02-16T07:40:46.209Z,5.20
2023-02-16T07:43:13.470Z,5.40
2023-02-16T07:45:42.934Z,4.90
2023-02-16T07:48:10.143Z,5.30
2023-02-16T07:50:37.860Z,5.40
2023-02-16T07:53:04.851Z,4.90
2023-02-16T07:55:31.977Z,5.10
2023-02-16T07:57:59.143Z,4.80
2023-02-16T08:00:27.135Z,4.60
2023-02-16T08:02:54.435Z,4.80
2023-02-16T08:05:21.775Z,4.80
2023-02-16T08:07:49.052Z,4.60
2023-02-16T08:10:16.714Z,4.30
2023-02-16T08:12:44.117Z,4.90
2023-02-16T08:15:11.852Z,4.60
2023-02-16T08:17:39.466Z,4.60
2023-02-16T08:20:08.706Z,4.40
2023-02-16T08:22:36.257Z,4.60
2023-02-16T08:25:07.016Z,4.10
2023-02-16T08:27:34.444Z,4.30
2023-02-16T08:30:01.529Z,4.10
2023-02-16T08:32:28.788Z,4.00
2023-02-16T08:34:57.498Z,3.90
2023-02-16T08:37:25.160Z,4.00
2023-02-16T08:39:52.215Z,4.00
2023-02-16T08:42:19.515Z,3.50
2023-02-16T08:44:46.603Z,3.70
2023-02-16T08:47:13.947Z,3.80
2023-02-16T08:49:41.295Z,3.60
2023-02-16T08:52:10.305Z,3.70
2023-02-16T08:54:37.370Z,3.10
2023-02-16T08:57:04.535Z,3.40
2023-02-16T08:59:32.838Z,3.20
2023-02-16T09:02:00.259Z,3.10
2023-02-16T09:04:29.463Z,3.50
2023-02-16T09:06:58.309Z,3.20
2023-02-16T09:09:26.635Z,3.50
2023-02-16T09:11:54.058Z,3.20
2023-02-16T09:14:21.951Z,3.10
2023-02-16T09:16:49.519Z,2.80
2023-02-16T09:19:19.776Z,3.10
2023-02-16T09:21:48.724Z,2.70
2023-02-16T09:24:16.301Z,3.10
2023-02-16T09:26:44.858Z,3.10
2023-02-16T09:29:14.175Z,2.90
2023-02-16T09:31:42.711Z,3.10
2023-02-16T09:34:21.864Z,3.00
2023-02-16T09:36:50.628Z,2.90
2023-02-16T09:39:18.836Z,2.90
2023-02-16T09:42:01.149Z,3.10
2023-02-16T09:44:44.673Z,3.10
2023-02-16T09:47:31.514Z,2.80
2023-02-16T09:50:13.937Z,2.90
2023-02-16T09:52:59.594Z,3.10
2023-02-16T09:55:38.217Z,3.10
2023-02-16T09:58:19.370Z,2.90
2023-02-16T10:00:55.955Z,2.90
2023-02-16T10:03:29.250Z,3.20
2023-02-16T10:06:14.479Z,2.30
2023-02-16T10:08:50.348Z,1.80
2023-02-16T10:11:45.730Z,2.40
2023-02-16T10:14:15.674Z,2.10
2023-02-16T10:16:52.861Z,2.10
2023-02-16T10:19:25.034Z,2.40
2023-02-16T10:21:58.933Z,2.10
2023-02-16T10:24:29.995Z,2.60
2023-02-16T10:27:11.958Z,2.30
2023-02-16T10:29:38.915Z,2.40
2023-02-16T10:32:31.433Z,2.50
2023-02-16T10:35:19.512Z,2.20
2023-02-16T10:38:11.120Z,2.30
2023-02-16T10:40:47.460Z,2.50
2023-02-16T10:43:20.810Z,2.40
2023-02-16T10:45:55.154Z,2.20
2023-02-16T10:48:23.599Z,2.50
2023-02-16T10:51:07.799Z,2.20
2023-02-16T10:53:51.547Z,2.20
2023-02-16T10:56:39.601Z,2.30
2023-02-16T10:59:13.723Z,2.40
2023-02-16T11:01:46.206Z,2.50
2023-02-16T11:04:42.959Z,2.20
2023-02-16T11:07:17.470Z,2.10
2023-02-16T11:09:54.045Z,2.20
2023-02-16T11:12:24.514Z,2.20
2023-02-16T11:14:59.384Z,2.40
2023-02-16T11:17:28.059Z,2.10
2023-02-16T11:20:09.638Z,2.20
2023-02-16T11:22:39.272Z,2.00
2023-02-16T11:25:27.237Z,2.20
2023-02-16T11:28:00.642Z,2.40
2023-02-16T11:30:32.833Z,2.40
2023-02-16T11:33:04.687Z,2.10
2023-02-16T11:35:40.455Z,1.90
2023-02-16T11:38:27.791Z,2.40
2023-02-16T11:40:56.440Z,2.20
2023-02-16T11:43:28.702Z,2.30
2023-02-16T11:46:13.765Z,2.10
2023-02-16T11:48:41.500Z,2.20
2023-02-16T11:51:10.827Z,2.00
2023-02-16T11:53:42.895Z,1.40
2023-02-16T11:56:25.194Z,1.30
2023-02-16T11:59:11.189Z,1.50
2023-02-16T12:01:59.638Z,1.70
2023-02-16T12:04:45.955Z,2.00
2023-02-16T12:07:44.623Z,1.70
2023-02-16T12:10:23.756Z,1.70
2023-02-16T12:13:04.526Z,1.60
2023-02-16T12:16:04.338Z,2.10
2023-02-16T12:18:57.711Z,1.70
2023-02-16T12:21:36.944Z,1.70
2023-02-16T12:24:22.830Z,1.90
2023-02-16T12:26:58.299Z,1.90
2023-02-16T12:29:36.067Z,1.90
2023-02-16T12:32:26.514Z,1.80
2023-02-16T12:35:33.247Z,1.60
2023-02-16T12:38:18.764Z,2.00
2023-02-16T12:40:58.619Z,2.30
2023-02-16T12:43:42.426Z,1.80
2023-02-16T12:46:31.337Z,1.90
2023-02-16T12:49:25.467Z,1.80
2023-02-16T12:52:05.566Z,1.90
2023-02-16T12:54:55.689Z,1.90
2023-02-16T12:57:26.337Z,1.60
2023-02-16T13:00:19.477Z,2.20
2023-02-16T13:03:09.366Z,1.20
2023-02-16T13:05:38.268Z,1.40
2023-02-16T13:09:01.267Z,1.80
2023-02-16T13:11:40.807Z,1.40
2023-02-16T13:14:18.049Z,1.40
2023-02-16T13:16:54.939Z,1.70
2023-02-16T13:19:23.663Z,1.70
2023-02-16T13:21:54.119Z,1.70
2023-02-16T13:25:07.422Z,1.50
2023-02-16T13:27:38.405Z,1.60
2023-02-16T13:30:25.013Z,1.70
2023-02-16T13:33:20.531Z,1.70
2023-02-16T13:35:57.713Z,1.90
2023-02-16T13:39:07.460Z,1.80
2023-02-16T13:42:02.097Z,1.90
2023-02-16T13:44:39.657Z,1.90
2023-02-16T13:47:11.811Z,2.30
2023-02-16T13:49:43.164Z,2.30
2023-02-16T13:52:33.665Z,1.80
2023-02-16T13:55:03.586Z,1.60
2023-02-16T13:57:50.870Z,1.60
2023-02-16T14:00:33.926Z,2.10
2023-02-16T14:03:04.283Z,2.00
2023-02-16T14:05:34.476Z,2.20
2023-02-16T14:08:15.133Z,2.20
2023-02-16T14:11:09.554Z,2.00
2023-02-16T14:13:39.477Z,2.50
2023-02-16T14:16:09.107Z,2.40
2023-02-16T14:18:42.529Z,2.60
2023-02-16T14:21:33.350Z,2.20
2023-02-16T14:24:03.537Z,2.20
2023-02-16T14:26:32.465Z,2.30
2023-02-16T14:29:06.371Z,2.60
2023-02-16T14:31:44.352Z,1.70
2023-02-16T14:34:38.061Z,1.60
2023-02-16T14:37:17.485Z,1.90
2023-02-16T14:40:07.028Z,1.80
2023-02-16T14:42:36.163Z,1.70
2023-02-16T14:45:31.254Z,1.90
2023-02-16T14:48:20.338Z,1.90
2023-02-16T14:51:10.105Z,2.10
2023-02-16T14:53:55.169Z,2.20
2023-02-16T14:56:28.498Z,2.10
2023-02-16T14:59:02.570Z,2.30
2023-02-16T15:01:40.351Z,2.60
2023-02-16T15:04:11.178Z,2.20
2023-02-16T15:06:43.081Z,2.00
2023-02-16T15:09:31.536Z,2.30
2023-02-16T15:12:21.796Z,2.00
2023-02-16T15:14:50.608Z,2.40
2023-02-16T15:17:45.202Z,2.50
2023-02-16T15:20:34.342Z,1.50
2023-02-16T15:23:03.047Z,1.80
2023-02-16T15:25:35.009Z,1.90
2023-02-16T15:28:04.645Z,2.30
2023-02-16T15:30:57.561Z,2.30
2023-02-16T15:33:24.736Z,1.70
2023-02-16T15:36:01.299Z,2.40
2023-02-16T15:38:35.233Z,1.90
2023-02-16T15:41:14.147Z,2.10
2023-02-16T15:43:50.747Z,2.00
2023-02-16T15:46:34.527Z,2.30
2023-02-16T15:49:20.722Z,2.40
2023-02-16T15:51:48.195Z,2.20
2023-02-16T15:54:31.276Z,2.20
2023-02-16T15:57:00.937Z,2.70
2023-02-16T15:59:34.204Z,2.20
2023-02-16T16:02:25.523Z,2.50
2023-02-16T16:04:58.099Z,2.30
2023-02-16T16:07:33.147Z,2.50
2023-02-16T16:10:00.901Z,2.40
2023-02-16T16:12:29.277Z,2.00
2023-02-16T16:14:56.530Z,1.70
2023-02-16T16:17:28.219Z,1.90
2023-02-16T16:19:59.629Z,2.20
2023-02-16T16:22:43.143Z,2.20
2023-02-16T16:25:37.115Z,2.20
2023-02-16T16:28:06.889Z,2.00
2023-02-16T16:30:37.572Z,2.30
2023-02-16T16:33:12.055Z,2.40
2023-02-16T16:35:46.636Z,2.50
2023-02-16T16:38:37.965Z,2.20
2023-02-16T16:41:05.554Z,2.40
2023-02-16T16:43:38.190Z,2.40
2023-02-16T16:46:12.247Z,2.30
2023-02-16T16:48:44.475Z,2.30
2023-02-16T16:51:16.463Z,2.50
2023-02-16T16:54:04.377Z,2.30
2023-02-16T16:56:42.067Z,2.50
2023-02-16T16:59:09.373Z,2.50
2023-02-16T17:01:36.441Z,2.40
2023-02-16T17:04:03.543Z,1.90
2023-02-16T17:06:31.990Z,1.80
2023-02-16T17:08:59.087Z,2.10
2023-02-16T17:11:29.373Z,2.20
2023-02-16T17:13:59.210Z,1.90
2023-02-16T17:16:41.422Z,2.30
2023-02-16T17:19:10.230Z,2.40
2023-02-16T17:21:37.215Z,2.60
2023-02-16T17:24:04.946Z,2.50
2023-02-16T17:26:32.770Z,2.60
2023-02-16T17:29:00.509Z,2.40
2023-02-16T17:31:27.620Z,2.60
2023-02-16T17:33:55.222Z,2.50
2023-02-16T17:36:25.854Z,2.70
2023-02-16T17:38:53.370Z,2.80
2023-02-16T17:41:23.625Z,2.70
2023-02-16T17:43:51.417Z,2.70
2023-02-16T17:46:20.525Z,2.70
2023-02-16T17:48:51.218Z,2.50
2023-02-16T17:51:20.761Z,1.70
2023-02-16T17:53:47.974Z,1.80
2023-02-16T17:56:16.947Z,2.30
2023-02-16T17:58:44.428Z,2.10
2023-02-16T18:01:14.862Z,2.30
2023-02-16T18:03:42.208Z,2.50
2023-02-16T18:06:15.301Z,2.30
2023-02-16T18:08:45.538Z,2.30
2023-02-16T18:11:16.187Z,2.50
2023-02-16T18:13:43.605Z,2.50
2023-02-16T18:16:15.511Z,2.50
2023-02-16T18:18:45.068Z,2.90
2023-02-16T18:21:12.576Z,3.10
2023-02-16T18:23:43.336Z,2.70
2023-02-16T18:26:15.856Z,2.70
2023-02-16T18:28:44.012Z,2.90
2023-02-16T18:31:13.171Z,3.20
2023-02-16T18:33:41.485Z,3.10
2023-02-16T18:36:12.472Z,3.00
2023-02-16T18:38:45.787Z,2.90
2023-02-16T18:41:14.015Z,3.30
2023-02-16T18:43:44.122Z,3.10
2023-02-16T18:46:17.442Z,2.10
2023-02-16T18:48:47.227Z,2.00
2023-02-16T18:51:16.721Z,2.20
2023-02-16T18:53:45.115Z,2.50
2023-02-16T18:56:13.933Z,2.40
2023-02-16T18:58:55.487Z,2.30
2023-02-16T19:01:28.450Z,2.40
2023-02-16T19:03:57.668Z,2.70
2023-02-16T19:06:28.297Z,2.30
2023-02-16T19:08:59.728Z,2.80
2023-02-16T19:11:31.620Z,2.70
2023-02-16T19:13:59.010Z,3.10
2023-02-16T19:16:28.287Z,2.70
2023-02-16T19:18:58.405Z,2.90
2023-02-16T19:21:27.184Z,2.80
2023-02-16T19:23:54.529Z,2.60
2023-02-16T19:26:21.622Z,2.60
2023-02-16T19:28:48.766Z,2.50
2023-02-16T19:31:30.446Z,2.90
2023-02-16T19:33:59.072Z,3.00
2023-02-16T19:36:30.017Z,2.30
2023-02-16T19:38:57.527Z,1.90
2023-02-16T19:41:34.298Z,2.00
2023-02-16T19:44:01.932Z,2.70
2023-02-16T19:46:30.322Z,2.70
2023-02-16T19:48:58.693Z,2.70
2023-02-16T19:51:26.895Z,2.70
2023-02-16T19:53:53.999Z,2.70
2023-02-16T19:56:23.929Z,2.60
2023-02-16T19:58:51.837Z,3.10
2023-02-16T20:01:25.278Z,3.30
2023-02-16T20:03:54.164Z,3.20
2023-02-16T20:06:31.486Z,3.20
2023-02-16T20:09:00.568Z,2.70
2023-02-16T20:11:29.825Z,3.00
2023-02-16T20:13:57.877Z,3.00
2023-02-16T20:16:27.082Z,3.00
2023-02-16T20:18:54.778Z,3.00
2023-02-16T20:21:24.256Z,3.70
2023-02-16T20:23:57.681Z,3.00
2023-02-16T20:26:32.989Z,3.00
2023-02-16T20:29:02.162Z,3.40
2023-02-16T20:31:33.108Z,3.20
2023-02-16T20:34:01.370Z,2.30
2023-02-16T20:36:28.637Z,2.00
2023-02-16T20:38:55.685Z,2.50
2023-02-16T20:41:23.011Z,2.50
2023-02-16T20:43:50.691Z,2.70
2023-02-16T20:46:18.746Z,2.60
2023-02-16T20:48:46.873Z,2.90
2023-02-16T20:51:14.238Z,2.90
2023-02-16T20:53:41.311Z,2.70
2023-02-16T20:56:17.465Z,2.90
2023-02-16T20:58:46.853Z,3.10
2023-02-16T21:01:25.384Z,3.50
2023-02-16T21:03:53.459Z,3.10
2023-02-16T21:06:22.469Z,3.20
2023-02-16T21:08:49.388Z,3.30
2023-02-16T21:11:16.350Z,3.40
2023-02-16T21:13:43.853Z,3.10
2023-02-16T21:16:11.767Z,3.30
2023-02-16T21:18:40.579Z,3.20
2023-02-16T21:21:07.990Z,3.20
2023-02-16T21:23:35.435Z,3.50
2023-02-16T21:26:05.819Z,2.30
2023-02-16T21:28:33.584Z,2.00
2023-02-16T21:31:10.395Z,2.40
2023-02-16T21:33:38.204Z,2.80
2023-02-16T21:36:11.256Z,3.00
2023-02-16T21:38:40.396Z,2.80
2023-02-16T21:41:29.309Z,3.00
2023-02-16T21:44:01.142Z,3.00
2023-02-16T21:46:31.724Z,2.90
2023-02-16T21:48:58.781Z,2.80
2023-02-16T21:51:32.152Z,2.80
2023-02-16T21:54:00.254Z,2.60
2023-02-16T21:56:39.176Z,2.80
2023-02-16T21:59:09.849Z,3.00
2023-02-16T22:01:40.356Z,3.00
2023-02-16T22:04:07.417Z,2.70
2023-02-16T22:06:38.829Z,3.60
2023-02-16T22:09:09.823Z,3.00
2023-02-16T22:11:37.109Z,3.20
2023-02-16T22:14:04.440Z,3.30
2023-02-16T22:16:33.468Z,3.10
2023-02-16T22:19:05.018Z,3.10
2023-02-16T22:21:36.898Z,2.30
2023-02-16T22:24:04.606Z,2.00
2023-02-16T22:26:34.665Z,2.10
2023-02-16T22:29:06.960Z,2.50
2023-02-16T22:31:35.101Z,2.70
2023-02-16T22:34:06.958Z,2.50
2023-02-16T22:36:34.524Z,2.30
2023-02-16T22:39:01.783Z,2.70
2023-02-16T22:41:28.862Z,3.20
2023-02-16T22:43:57.204Z,2.70
2023-02-16T22:46:24.572Z,2.60
2023-02-16T22:48:52.770Z,3.00
2023-02-16T22:51:21.637Z,2.80
2023-02-16T22:53:49.006Z,3.00
2023-02-16T22:56:19.406Z,2.90
2023-02-16T22:58:47.683Z,3.10
2023-02-16T23:01:18.359Z,3.00
2023-02-16T23:03:53.695Z,3.10
2023-02-16T23:06:25.084Z,3.80
2023-02-16T23:08:55.287Z,3.20
2023-02-16T23:11:22.471Z,2.60
2023-02-16T23:13:49.737Z,2.60
2023-02-16T23:16:19.449Z,1.90
2023-02-16T23:18:46.899Z,1.90
2023-02-16T23:21:23.158Z,2.30
2023-02-16T23:23:52.144Z,2.60
2023-02-16T23:26:21.207Z,2.60
2023-02-16T23:28:56.403Z,2.20
2023-02-16T23:31:23.961Z,2.30
2023-02-16T23:33:51.802Z,2.50
2023-02-16T23:36:19.435Z,2.40
2023-02-16T23:38:46.517Z,2.50
2023-02-16T23:41:15.471Z,2.40
2023-02-16T23:43:42.963Z,2.80
2023-02-16T23:46:11.736Z,2.60
2023-02-16T23:48:38.905Z,3.20
2023-02-16T23:51:06.453Z,2.60
2023-02-16T23:53:33.926Z,2.90
2023-02-16T23:56:11.935Z,2.90
2023-02-16T23:58:41.706Z,2.70
